Time;durP1;ratioP1;P1;durP2;ratioP2;P2;SDS_P1;SDS_P2;PMS_P1;PMS_P2;Temp;Humidity;BMP_temperature;BMP_pressure;BME280_temperature;BME280_humidity;BME280_pressure;Samples;Min_cycle;Max_cycle;Signal;HPM_P1;HPM_P2
2023/07/02 00:01:40;;;;;;;9.48;4.65;;;16.10;99.90;;;;;;4982572;28;20113;-51
2023/07/02 00:04:08;;;;;;;13.48;4.97;;;16.10;99.90;;;;;;4982868;28;20498;-55
2023/07/02 00:06:40;;;;;;;11.20;4.97;;;16.10;99.90;;;;;;4982625;28;20184;-55
2023/07/02 00:09:06;;;;;;;10.15;4.80;;;16.00;99.90;;;;;;4982518;28;20606;-57
2023/07/02 00:11:32;;;;;;;12.32;4.95;;;16.00;99.90;;;;;;4983798;28;20119;-51
2023/07/02 00:13:58;;;;;;;12.32;4.78;;;15.90;99.90;;;;;;4983505;28;20121;-56
2023/07/02 00:16:23;;;;;;;11.68;4.82;;;15.90;99.90;;;;;;4982231;28;20038;-54
2023/07/02 00:18:52;;;;;;;12.52;5.40;;;15.90;99.90;;;;;;4982726;28;20038;-57
2023/07/02 00:21:19;;;;;;;16.38;6.20;;;15.90;99.90;;;;;;4983270;28;20061;-53
2023/07/02 00:23:45;;;;;;;12.73;5.45;;;15.80;99.90;;;;;;4982771;28;20034;-51
2023/07/02 00:26:10;;;;;;;10.25;5.18;;;15.80;99.90;;;;;;4983051;28;20049;-58
2023/07/02 00:28:36;;;;;;;15.90;6.35;;;15.80;99.90;;;;;;4983182;28;20090;-57
2023/07/02 00:31:02;;;;;;;15.95;5.93;;;15.80;99.90;;;;;;4983347;28;20069;-55
2023/07/02 00:33:28;;;;;;;16.30;6.30;;;15.70;99.90;;;;;;4981491;28;20042;-58
2023/07/02 00:35:54;;;;;;;13.52;5.85;;;15.70;99.90;;;;;;4982802;28;20445;-53
2023/07/02 00:38:21;;;;;;;17.50;6.65;;;15.70;99.90;;;;;;4965517;28;20042;-56
2023/07/02 00:40:47;;;;;;;15.00;6.50;;;15.80;99.90;;;;;;4982222;28;20047;-55
2023/07/02 00:43:13;;;;;;;17.23;6.75;;;15.70;99.90;;;;;;4982829;28;20045;-53
2023/07/02 00:45:41;;;;;;;19.95;7.18;;;15.80;99.90;;;;;;4982657;28;20050;-57
2023/07/02 00:48:07;;;;;;;16.83;6.88;;;15.60;99.90;;;;;;4981395;28;20046;-47
2023/07/02 00:50:32;;;;;;;14.02;7.07;;;15.50;99.90;;;;;;4982760;28;20379;-54
2023/07/02 00:52:58;;;;;;;16.35;6.90;;;15.50;99.90;;;;;;4982656;28;20045;-57
2023/07/02 00:55:25;;;;;;;16.50;7.38;;;15.50;99.90;;;;;;4982086;28;20050;-51
2023/07/02 00:57:50;;;;;;;18.13;6.68;;;15.50;99.90;;;;;;4982160;28;20048;-48
2023/07/02 01:00:16;;;;;;;19.08;7.53;;;15.40;99.90;;;;;;4981252;28;20046;-53
2023/07/02 01:02:43;;;;;;;20.77;7.57;;;15.40;99.90;;;;;;4981820;28;20482;-50
2023/07/02 01:05:16;;;;;;;15.73;7.47;;;15.30;99.90;;;;;;4978369;28;20565;-59
2023/07/02 01:07:42;;;;;;;15.57;6.88;;;15.30;99.90;;;;;;4982589;28;20054;-56
2023/07/02 01:10:08;;;;;;;16.73;7.22;;;15.30;99.90;;;;;;4982560;28;20056;-51
2023/07/02 01:12:36;;;;;;;16.50;7.53;;;15.20;99.90;;;;;;5057946;22;20141;-55
2023/07/02 01:15:04;;;;;;;19.50;7.70;;;15.20;99.90;;;;;;4981248;28;20050;-57
2023/07/02 01:17:39;;;;;;;24.02;7.85;;;15.10;99.90;;;;;;4980984;28;20101;-48
2023/07/02 01:20:08;;;;;;;19.90;8.23;;;15.10;99.90;;;;;;4983868;28;20047;-48
2023/07/02 01:22:34;;;;;;;17.95;7.47;;;15.00;99.90;;;;;;4982221;28;20093;-52
2023/07/02 01:25:00;;;;;;;26.42;8.65;;;15.00;99.90;;;;;;4982470;28;20077;-59
2023/07/02 01:27:29;;;;;;;18.90;7.70;;;15.00;99.90;;;;;;4981761;28;20089;-55
2023/07/02 01:29:55;;;;;;;21.23;8.52;;;14.90;99.90;;;;;;4970752;28;20368;-51
2023/07/02 01:32:21;;;;;;;21.85;8.55;;;14.90;99.90;;;;;;4963156;28;20046;-54
2023/07/02 01:34:53;;;;;;;21.38;8.45;;;14.90;99.90;;;;;;4962028;28;20220;-57
2023/07/02 01:37:18;;;;;;;19.92;7.75;;;14.90;99.90;;;;;;4960647;28;20042;-55
2023/07/02 01:39:44;;;;;;;21.42;8.55;;;14.80;99.90;;;;;;4971557;28;20049;-52
2023/07/02 01:42:11;;;;;;;22.48;8.35;;;14.80;99.90;;;;;;4981889;28;20219;-53
2023/07/02 01:44:38;;;;;;;19.65;7.78;;;14.70;99.90;;;;;;4981283;28;20054;-53
2023/07/02 01:47:04;;;;;;;20.88;8.43;;;14.70;99.90;;;;;;4982428;28;20050;-57
2023/07/02 01:49:30;;;;;;;22.23;8.80;;;14.70;99.90;;;;;;4981535;28;20057;-57
2023/07/02 01:51:56;;;;;;;22.13;8.27;;;14.60;99.90;;;;;;4982059;28;20057;-50
2023/07/02 01:54:24;;;;;;;21.42;8.18;;;14.60;99.90;;;;;;4981223;28;20449;-57
2023/07/02 01:56:50;;;;;;;21.42;8.15;;;14.60;99.90;;;;;;4981448;28;20279;-55
2023/07/02 01:59:19;;;;;;;26.52;8.52;;;14.50;99.90;;;;;;4982114;28;20034;-51
2023/07/02 02:01:44;;;;;;;26.98;8.45;;;14.50;99.90;;;;;;4980148;28;20050;-57
2023/07/02 02:04:11;;;;;;;20.45;8.15;;;14.40;99.90;;;;;;4981250;28;20073;-47
2023/07/02 02:06:38;;;;;;;29.30;8.10;;;14.40;99.90;;;;;;4982142;28;20085;-53
2023/07/02 02:09:05;;;;;;;20.23;8.63;;;14.40;99.90;;;;;;4981261;28;20444;-57
2023/07/02 02:11:31;;;;;;;23.20;8.52;;;14.40;99.90;;;;;;4983723;28;20054;-55
2023/07/02 02:13:58;;;;;;;20.83;8.75;;;14.30;99.90;;;;;;4986036;28;20057;-54
2023/07/02 02:16:24;;;;;;;20.80;8.75;;;14.40;99.90;;;;;;4985500;28;20042;-58
2023/07/02 02:18:53;;;;;;;21.48;8.80;;;14.30;99.90;;;;;;4982686;28;20073;-51
2023/07/02 02:21:19;;;;;;;24.17;8.52;;;14.30;99.90;;;;;;4964802;28;20043;-56
2023/07/02 02:23:45;;;;;;;24.13;9.55;;;14.30;99.90;;;;;;4965714;28;20055;-55
2023/07/02 02:26:11;;;;;;;23.80;8.50;;;14.30;99.90;;;;;;4965721;28;20061;-52
2023/07/02 02:28:37;;;;;;;22.75;8.82;;;14.30;99.90;;;;;;4966748;28;20456;-56
2023/07/02 02:31:03;;;;;;;23.45;8.80;;;14.30;99.90;;;;;;4964877;28;20050;-56
2023/07/02 02:33:29;;;;;;;24.60;9.35;;;14.30;99.90;;;;;;4964842;28;20043;-54
2023/07/02 02:35:54;;;;;;;21.75;9.30;;;14.20;99.90;;;;;;4965747;28;20058;-54
2023/07/02 02:38:20;;;;;;;20.48;8.63;;;14.10;99.90;;;;;;4965772;28;20034;-50
2023/07/02 02:40:46;;;;;;;25.23;9.38;;;14.30;99.90;;;;;;4965796;28;20446;-57
2023/07/02 02:43:11;;;;;;;29.77;10.15;;;14.20;99.90;;;;;;4965188;28;20038;-53
2023/07/02 02:45:38;;;;;;;21.83;8.30;;;14.00;99.90;;;;;;4965847;28;20436;-58
2023/07/02 02:48:04;;;;;;;20.95;9.25;;;14.10;99.90;;;;;;4965523;28;20047;-57
2023/07/02 02:50:29;;;;;;;27.83;9.68;;;14.00;99.90;;;;;;4965439;28;20054;-52
2023/07/02 02:52:55;;;;;;;23.63;9.80;;;13.90;99.90;;;;;;4965390;28;20078;-56
2023/07/02 02:55:21;;;;;;;27.23;9.38;;;13.90;99.90;;;;;;4947919;28;20046;-50
2023/07/02 02:57:46;;;;;;;27.33;10.25;;;13.90;99.90;;;;;;4965706;28;20055;-54
2023/07/02 03:00:12;;;;;;;26.95;10.02;;;13.80;99.90;;;;;;4964865;28;20039;-55
2023/07/02 03:02:38;;;;;;;27.35;10.55;;;13.80;99.90;;;;;;4964881;28;20046;-53
2023/07/02 03:05:06;;;;;;;27.23;10.25;;;13.80;99.90;;;;;;4963596;28;20155;-58
2023/07/02 03:07:32;;;;;;;24.65;9.75;;;13.80;99.90;;;;;;4964215;28;20038;-50
2023/07/02 03:09:59;;;;;;;28.95;10.07;;;13.80;99.90;;;;;;4965590;28;20062;-58
2023/07/02 03:12:27;;;;;;;26.90;9.88;;;13.70;99.90;;;;;;4964749;28;20047;-50
2023/07/02 03:14:55;;;;;;;25.13;10.25;;;13.60;99.90;;;;;;4964235;28;20139;-53
2023/07/02 03:17:23;;;;;;;23.55;9.20;;;13.60;99.90;;;;;;4963979;28;20054;-50
2023/07/02 03:19:50;;;;;;;26.42;10.02;;;13.60;99.90;;;;;;4965421;28;20409;-58
2023/07/02 03:22:16;;;;;;;24.98;9.27;;;13.60;99.90;;;;;;4963778;28;20243;-55
2023/07/02 03:24:42;;;;;;;26.65;10.05;;;13.60;99.90;;;;;;4964981;28;20053;-56
2023/07/02 03:27:07;;;;;;;24.40;9.77;;;13.40;99.90;;;;;;4965263;28;20042;-58
2023/07/02 03:29:37;;;;;;;24.70;10.27;;;13.40;99.90;;;;;;4965155;28;20082;-51
2023/07/02 03:32:04;;;;;;;25.67;10.00;;;13.30;99.90;;;;;;4964361;28;20412;-50
2023/07/02 03:34:30;;;;;;;23.30;9.57;;;13.40;99.90;;;;;;4964531;28;20371;-57
2023/07/02 03:36:55;;;;;;;26.50;10.52;;;13.30;99.90;;;;;;4963522;28;20133;-52
2023/07/02 03:39:21;;;;;;;25.23;10.40;;;13.30;99.90;;;;;;4964863;28;20045;-56
2023/07/02 03:41:47;;;;;;;23.60;10.10;;;13.30;99.90;;;;;;4971757;28;20042;-49
2023/07/02 03:44:12;;;;;;;25.95;9.77;;;13.20;99.90;;;;;;4984447;28;20085;-54
2023/07/02 03:46:38;;;;;;;21.52;9.57;;;13.20;99.90;;;;;;4983992;28;20398;-57
2023/07/02 03:49:04;;;;;;;20.73;9.25;;;13.20;99.90;;;;;;4982695;28;20406;-50
2023/07/02 03:51:30;;;;;;;26.98;10.35;;;13.20;99.90;;;;;;4983797;28;20390;-58
2023/07/02 03:53:58;;;;;;;26.05;9.68;;;13.10;99.90;;;;;;4983795;28;20107;-52
2023/07/02 03:56:23;;;;;;;24.10;9.82;;;13.10;99.90;;;;;;4984168;28;20046;-54
2023/07/02 03:58:49;;;;;;;21.92;9.52;;;13.20;99.90;;;;;;4983277;28;20516;-57
2023/07/02 04:01:15;;;;;;;24.00;9.20;;;13.20;99.90;;;;;;4983862;28;20042;-53
2023/07/02 04:03:47;;;;;;;30.80;10.57;;;13.20;99.90;;;;;;4983145;28;20101;-57
2023/07/02 04:06:13;;;;;;;26.65;10.60;;;13.20;99.90;;;;;;4983348;28;20125;-57
2023/07/02 04:08:38;;;;;;;29.60;10.18;;;13.20;99.90;;;;;;4983453;28;20125;-54
2023/07/02 04:11:04;;;;;;;24.33;9.85;;;13.30;99.90;;;;;;4983556;28;20050;-56
2023/07/02 04:13:30;;;;;;;23.45;10.02;;;13.30;99.90;;;;;;4982331;28;20050;-56
2023/07/02 04:15:55;;;;;;;21.90;10.63;;;13.40;99.90;;;;;;4983462;28;20505;-51
2023/07/02 04:18:21;;;;;;;28.42;10.75;;;13.40;99.90;;;;;;4982548;28;20042;-55
2023/07/02 04:20:46;;;;;;;25.25;10.15;;;13.50;99.90;;;;;;4983292;28;20161;-52
2023/07/02 04:23:12;;;;;;;25.13;9.35;;;13.70;99.90;;;;;;4983108;28;20050;-52
2023/07/02 04:25:37;;;;;;;24.98;10.07;;;13.70;99.90;;;;;;4982956;28;20581;-54
2023/07/02 04:28:03;;;;;;;22.65;10.20;;;13.70;99.90;;;;;;4983540;28;20049;-48
2023/07/02 04:30:29;;;;;;;25.60;10.55;;;13.70;99.90;;;;;;4982303;28;20670;-57
2023/07/02 04:32:54;;;;;;;26.15;10.07;;;13.70;99.90;;;;;;4981239;28;20054;-50
2023/07/02 04:35:20;;;;;;;26.02;10.13;;;13.70;99.90;;;;;;4981631;28;20525;-57
2023/07/02 04:37:46;;;;;;;26.65;10.68;;;13.70;99.90;;;;;;4983132;28;20042;-51
2023/07/02 04:40:12;;;;;;;23.95;9.82;;;13.70;99.90;;;;;;4982630;28;20038;-54
2023/07/02 04:42:38;;;;;;;27.02;10.15;;;13.80;99.90;;;;;;4982353;28;20108;-53
2023/07/02 04:45:05;;;;;;;28.95;9.80;;;13.90;99.90;;;;;;4983220;28;20047;-53
2023/07/02 04:47:31;;;;;;;26.50;10.07;;;13.80;99.90;;;;;;4981607;28;20281;-56
2023/07/02 04:49:57;;;;;;;23.45;9.85;;;13.80;99.90;;;;;;4981332;28;20054;-53
2023/07/02 04:52:23;;;;;;;23.75;9.98;;;14.10;99.90;;;;;;4983088;28;20034;-58
2023/07/02 04:54:49;;;;;;;27.73;10.43;;;13.90;99.90;;;;;;4979492;28;20049;-57
2023/07/02 04:57:15;;;;;;;21.63;9.18;;;14.10;99.90;;;;;;4973862;28;20138;-52
2023/07/02 04:59:44;;;;;;;26.65;9.60;;;14.20;99.90;;;;;;4963174;28;20046;-57
2023/07/02 05:02:10;;;;;;;25.10;9.90;;;14.20;99.90;;;;;;4962205;28;20045;-56
2023/07/02 05:04:39;;;;;;;22.95;9.68;;;14.10;99.90;;;;;;4963077;28;20055;-56
2023/07/02 05:07:04;;;;;;;27.30;9.73;;;14.10;99.90;;;;;;4963228;28;20035;-58
2023/07/02 05:09:30;;;;;;;27.15;10.35;;;14.00;99.90;;;;;;4962900;28;20255;-54
2023/07/02 05:11:59;;;;;;;25.42;9.50;;;14.00;99.90;;;;;;4962761;28;20050;-53
2023/07/02 05:14:25;;;;;;;26.77;9.82;;;14.00;99.90;;;;;;4963394;28;20035;-58
2023/07/02 05:16:50;;;;;;;26.58;10.05;;;14.00;99.90;;;;;;4962929;28;20572;-51
2023/07/02 05:19:16;;;;;;;24.50;9.73;;;14.30;99.90;;;;;;4962565;28;20464;-57
2023/07/02 05:21:42;;;;;;;28.25;10.02;;;14.80;99.90;;;;;;4962111;28;20039;-51
2023/07/02 05:24:08;;;;;;;24.45;9.27;;;14.80;99.90;;;;;;4963101;28;20042;-54
2023/07/02 05:26:34;;;;;;;22.73;9.48;;;15.00;99.90;;;;;;4963037;28;20051;-51
2023/07/02 05:29:00;;;;;;;21.90;9.63;;;15.20;99.90;;;;;;4962008;28;20043;-50
2023/07/02 05:31:26;;;;;;;21.17;9.25;;;15.40;99.90;;;;;;4962819;28;20057;-56
2023/07/02 05:33:51;;;;;;;24.88;9.10;;;15.70;99.90;;;;;;4962248;28;20194;-56
2023/07/02 05:36:17;;;;;;;23.23;9.60;;;15.90;99.90;;;;;;4963053;28;20043;-45
2023/07/02 05:38:43;;;;;;;21.70;8.88;;;16.30;99.90;;;;;;4962004;28;20263;-57
2023/07/02 05:41:08;;;;;;;23.50;9.30;;;16.40;99.90;;;;;;4962499;28;20149;-51
2023/07/02 05:43:34;;;;;;;21.00;8.75;;;16.50;99.90;;;;;;4962470;28;20046;-57
2023/07/02 05:46:00;;;;;;;24.50;9.10;;;16.70;99.90;;;;;;4963182;28;20057;-49
2023/07/02 05:48:27;;;;;;;20.80;8.77;;;16.70;99.90;;;;;;4966339;28;20062;-56
2023/07/02 05:50:52;;;;;;;25.35;9.13;;;16.60;99.90;;;;;;4966615;28;20042;-46
2023/07/02 05:53:18;;;;;;;22.98;9.35;;;16.20;99.90;;;;;;4965908;28;20398;-51
2023/07/02 05:55:44;;;;;;;21.40;8.73;;;16.10;99.90;;;;;;4965881;28;20122;-60
2023/07/02 05:58:10;;;;;;;26.15;8.57;;;15.90;99.90;;;;;;4966837;28;20413;-50
2023/07/02 06:00:36;;;;;;;18.75;7.57;;;15.80;99.90;;;;;;4966749;28;20046;-48
2023/07/02 06:03:02;;;;;;;18.83;7.43;;;15.80;99.90;;;;;;4964155;28;20074;-57
2023/07/02 06:05:27;;;;;;;21.95;7.30;;;15.70;99.90;;;;;;4966375;28;20050;-53
2023/07/02 06:07:53;;;;;;;19.42;7.45;;;15.80;99.90;;;;;;4965058;28;20623;-54
2023/07/02 06:10:19;;;;;;;17.60;7.13;;;16.20;99.90;;;;;;4966599;28;20050;-51
2023/07/02 06:12:45;;;;;;;18.55;6.35;;;16.80;99.90;;;;;;4965538;28;20091;-57
2023/07/02 06:15:11;;;;;;;18.63;7.45;;;17.20;99.90;;;;;;4965934;28;20055;-53
2023/07/02 06:17:36;;;;;;;16.08;6.30;;;17.10;99.90;;;;;;4965837;28;20454;-55
2023/07/02 06:20:04;;;;;;;18.23;6.28;;;17.00;99.90;;;;;;4964979;28;20137;-53
2023/07/02 06:22:30;;;;;;;16.63;6.22;;;17.50;99.90;;;;;;4966328;28;20050;-51
2023/07/02 06:24:56;;;;;;;23.23;6.78;;;17.60;99.90;;;;;;4966247;28;20042;-56
2023/07/02 06:27:21;;;;;;;19.60;6.88;;;17.50;99.90;;;;;;4965852;28;20042;-54
2023/07/02 06:29:47;;;;;;;19.48;7.40;;;17.30;99.90;;;;;;4964226;28;20068;-54
2023/07/02 06:32:13;;;;;;;17.65;6.88;;;17.10;99.90;;;;;;4964922;28;20049;-56
2023/07/02 06:34:38;;;;;;;21.85;6.75;;;17.10;99.90;;;;;;4965989;28;20071;-54
2023/07/02 06:37:04;;;;;;;15.88;6.00;;;17.00;99.90;;;;;;4965300;28;20050;-56
2023/07/02 06:39:30;;;;;;;17.77;6.75;;;17.00;99.90;;;;;;4965447;28;20441;-51
2023/07/02 06:41:55;;;;;;;19.10;6.65;;;17.10;99.90;;;;;;4965740;28;20039;-57
2023/07/02 06:44:21;;;;;;;15.77;6.18;;;17.30;99.90;;;;;;4965431;28;20047;-55
2023/07/02 06:46:47;;;;;;;18.25;6.15;;;17.70;99.90;;;;;;4964823;28;20097;-55
2023/07/02 06:49:12;;;;;;;16.88;6.28;;;17.80;99.90;;;;;;4964088;28;20508;-53
2023/07/02 06:51:38;;;;;;;16.98;6.13;;;18.00;99.90;;;;;;4965404;28;20035;-52
2023/07/02 06:54:04;;;;;;;19.45;6.30;;;18.30;99.90;;;;;;4965051;28;20113;-55
2023/07/02 06:56:31;;;;;;;18.42;6.28;;;18.40;99.90;;;;;;4965326;28;20533;-51
2023/07/02 06:58:56;;;;;;;19.25;5.93;;;18.70;99.90;;;;;;4972491;28;20456;-52
2023/07/02 07:01:22;;;;;;;14.05;5.53;;;18.90;99.90;;;;;;4976014;28;20042;-55
2023/07/02 07:03:48;;;;;;;16.52;5.88;;;18.80;99.40;;;;;;4964332;28;20053;-55
2023/07/02 07:06:13;;;;;;;13.10;5.68;;;18.90;99.20;;;;;;4970393;28;20090;-56
2023/07/02 07:08:39;;;;;;;15.60;6.35;;;18.80;99.40;;;;;;4971361;28;20049;-50
2023/07/02 07:11:04;;;;;;;13.77;5.68;;;18.70;99.60;;;;;;4964447;28;20501;-55
2023/07/02 07:13:30;;;;;;;18.05;7.07;;;18.70;99.30;;;;;;4963423;28;20577;-55
2023/07/02 07:15:56;;;;;;;14.43;6.32;;;18.60;99.10;;;;;;4965739;28;20098;-55
2023/07/02 07:18:21;;;;;;;14.52;5.32;;;18.70;99.00;;;;;;4963003;28;20267;-46
2023/07/02 07:20:47;;;;;;;16.90;5.97;;;18.80;98.10;;;;;;4964440;28;20534;-52
2023/07/02 07:23:14;;;;;;;12.30;5.35;;;18.90;97.10;;;;;;4964900;28;20699;-58
2023/07/02 07:25:39;;;;;;;13.25;5.40;;;18.90;96.70;;;;;;4964584;28;20042;-53
2023/07/02 07:28:05;;;;;;;11.85;4.63;;;19.00;96.90;;;;;;4964744;28;20134;-46
2023/07/02 07:30:30;;;;;;;14.40;5.25;;;19.20;96.70;;;;;;4964751;28;20075;-58
2023/07/02 07:32:56;;;;;;;14.82;5.05;;;19.20;96.20;;;;;;4964921;28;20060;-53
2023/07/02 07:35:22;;;;;;;12.23;4.88;;;19.30;96.40;;;;;;4964704;28;20565;-55
2023/07/02 07:37:48;;;;;;;9.55;3.67;;;19.40;96.50;;;;;;4964269;28;20624;-53
2023/07/02 07:40:14;;;;;;;10.27;3.42;;;19.40;95.50;;;;;;4964760;28;20145;-53
2023/07/02 07:42:42;;;;;;;11.85;3.80;;;19.30;94.90;;;;;;4964128;28;20105;-58
2023/07/02 07:45:08;;;;;;;7.70;2.60;;;19.30;95.00;;;;;;4962690;28;20393;-53
2023/07/02 07:47:34;;;;;;;7.57;2.75;;;19.50;94.20;;;;;;4962944;28;20082;-57
2023/07/02 07:49:59;;;;;;;10.68;3.40;;;19.50;93.80;;;;;;4964116;28;20493;-50
2023/07/02 07:52:25;;;;;;;10.43;3.13;;;19.10;94.10;;;;;;4965163;28;20046;-55
2023/07/02 07:54:51;;;;;;;7.50;3.17;;;18.80;94.80;;;;;;4963782;28;20043;-57
2023/07/02 07:57:16;;;;;;;7.80;2.88;;;18.60;95.70;;;;;;4964630;28;20035;-53
2023/07/02 07:59:42;;;;;;;10.20;3.20;;;18.60;95.80;;;;;;4972140;28;20050;-57
2023/07/02 08:02:08;;;;;;;7.75;2.83;;;18.80;95.00;;;;;;4981972;28;20389;-49
2023/07/02 08:04:34;;;;;;;11.63;3.65;;;19.10;94.20;;;;;;4983862;28;20873;-57
2023/07/02 08:07:00;;;;;;;8.57;2.90;;;19.30;94.30;;;;;;4982779;28;20089;-53
2023/07/02 08:09:25;;;;;;;8.55;2.80;;;19.50;94.40;;;;;;4983481;28;20129;-58
2023/07/02 08:11:51;;;;;;;9.52;3.33;;;19.60;93.90;;;;;;4981188;28;20050;-48
2023/07/02 08:14:20;;;;;;;8.25;3.22;;;19.60;93.50;;;;;;4982107;28;20053;-53
2023/07/02 08:16:46;;;;;;;10.82;3.30;;;19.60;93.60;;;;;;4983165;28;20042;-59
2023/07/02 08:19:11;;;;;;;6.53;2.85;;;19.50;94.10;;;;;;4976032;28;20190;-56
2023/07/02 08:21:37;;;;;;;7.72;2.28;;;19.40;93.90;;;;;;4974868;28;20053;-53
2023/07/02 08:24:03;;;;;;;10.05;2.50;;;19.40;93.40;;;;;;4972749;28;20528;-56
2023/07/02 08:26:29;;;;;;;7.80;2.83;;;19.40;93.20;;;;;;4975161;28;20042;-48
2023/07/02 08:28:55;;;;;;;9.52;2.90;;;19.50;92.80;;;;;;4963617;28;20509;-56
2023/07/02 08:31:20;;;;;;;7.05;2.60;;;19.60;92.90;;;;;;4963611;28;20047;-54
2023/07/02 08:33:46;;;;;;;10.32;2.90;;;19.60;93.50;;;;;;4963187;28;20089;-53
2023/07/02 08:36:13;;;;;;;8.73;2.72;;;19.70;93.40;;;;;;4963067;28;20093;-59
2023/07/02 08:38:41;;;;;;;7.30;2.95;;;19.90;92.90;;;;;;4963493;28;20141;-52
2023/07/02 08:41:08;;;;;;;8.70;3.10;;;20.00;92.50;;;;;;4963576;28;20046;-58
2023/07/02 08:43:35;;;;;;;10.57;3.00;;;19.90;92.20;;;;;;4963369;28;20077;-46
2023/07/02 08:46:01;;;;;;;7.60;3.00;;;19.60;92.20;;;;;;4963433;28;20513;-51
2023/07/02 08:48:29;;;;;;;7.43;3.03;;;19.50;92.30;;;;;;4962081;28;20043;-55
2023/07/02 08:50:57;;;;;;;9.60;2.88;;;19.20;92.70;;;;;;4962955;28;20083;-49
2023/07/02 08:53:29;;;;;;;10.90;3.03;;;19.00;92.90;;;;;;4961057;28;20079;-53
2023/07/02 08:55:59;;;;;;;9.23;3.20;;;18.80;93.00;;;;;;4961808;28;20063;-52
2023/07/02 08:58:25;;;;;;;9.13;2.88;;;18.50;93.40;;;;;;4963156;28;20055;-51
2023/07/02 09:01:09;;;;;;;8.05;2.60;;;18.50;93.60;;;;;;4967543;28;20404;-52
2023/07/02 09:03:37;;;;;;;;;;;18.50;93.90;;;;;;4973173;28;20054;-58
2023/07/02 09:06:04;;;;;;;11.43;3.40;;;18.60;93.80;;;;;;4966893;28;19926;-49
2023/07/02 09:08:29;;;;;;;9.82;3.20;;;18.80;93.70;;;;;;4969637;28;20054;-57
2023/07/02 09:11:12;;;;;;;8.48;2.97;;;18.90;93.70;;;;;;4962700;28;20410;-55
2023/07/02 09:13:49;;;;;;;10.65;3.92;;;18.80;93.80;;;;;;4961273;28;20069;-52
2023/07/02 09:16:36;;;;;;;14.23;5.32;;;18.70;93.70;;;;;;4962570;28;20055;-58
2023/07/02 09:19:03;;;;;;;12.60;4.30;;;18.60;94.40;;;;;;4962742;28;20046;-57
2023/07/02 09:21:41;;;;;;;10.07;3.53;;;18.60;94.40;;;;;;4962286;28;20117;-52
2023/07/02 09:24:22;;;;;;;8.82;3.60;;;18.60;94.70;;;;;;4961665;28;20035;-56
2023/07/02 09:26:50;;;;;;;13.23;4.15;;;18.50;95.10;;;;;;4962896;28;20054;-55
2023/07/02 09:29:28;;;;;;;10.65;3.85;;;18.40;95.40;;;;;;4962948;28;20074;-49
2023/07/02 09:31:55;;;;;;;13.30;4.20;;;18.30;95.60;;;;;;4961998;28;20074;-49
2023/07/02 09:34:36;;;;;;;11.50;4.82;;;18.40;96.00;;;;;;4962943;28;20054;-58
2023/07/02 09:37:04;;;;;;;11.10;4.10;;;18.30;96.20;;;;;;4962318;28;20047;-48
2023/07/02 09:39:32;;;;;;;10.60;4.40;;;18.40;96.00;;;;;;4962837;28;20046;-52
2023/07/02 09:42:00;;;;;;;10.65;4.22;;;18.50;96.20;;;;;;4961391;28;20042;-56
2023/07/02 09:44:29;;;;;;;8.73;3.88;;;18.50;96.00;;;;;;4961703;28;20057;-53
2023/07/02 09:47:05;;;;;;;9.85;3.92;;;18.70;96.10;;;;;;4961593;28;20085;-53
2023/07/02 09:50:05;;;;;;;12.70;4.32;;;19.10;95.80;;;;;;4962441;28;20343;-53
2023/07/02 09:52:31;;;;;;;9.07;3.70;;;19.40;95.00;;;;;;4958757;28;20066;-57
2023/07/02 09:54:57;;;;;;;13.13;3.35;;;19.60;94.40;;;;;;4961852;28;20046;-53
2023/07/02 09:57:22;;;;;;;12.93;3.80;;;19.60;94.40;;;;;;4962767;28;20038;-58
2023/07/02 09:59:50;;;;;;;8.10;3.25;;;19.60;94.20;;;;;;4962250;28;20038;-53
2023/07/02 10:02:15;;;;;;;11.15;3.42;;;19.60;94.10;;;;;;4961474;28;20133;-55
2023/07/02 10:04:41;;;;;;;14.10;3.55;;;19.60;94.30;;;;;;4962145;28;20304;-55
2023/07/02 10:07:07;;;;;;;9.82;2.97;;;19.60;93.30;;;;;;4962477;28;20051;-45
2023/07/02 10:09:46;;;;;;;9.20;2.55;;;19.60;93.20;;;;;;4962912;28;20038;-56
2023/07/02 10:12:15;;;;;;;8.80;3.00;;;19.80;92.90;;;;;;4961107;28;20506;-53
2023/07/02 10:14:42;;;;;;;5.93;2.70;;;19.90;92.30;;;;;;4962673;28;20425;-54
2023/07/02 10:17:07;;;;;;;8.18;2.92;;;19.90;92.50;;;;;;4961458;28;20117;-57
2023/07/02 10:19:33;;;;;;;7.68;2.97;;;20.20;93.20;;;;;;4962185;28;20565;-53
2023/07/02 10:22:04;;;;;;;10.70;3.00;;;20.20;92.70;;;;;;4974757;28;20045;-55
2023/07/02 10:24:29;;;;;;;11.82;3.33;;;20.30;93.10;;;;;;4962307;28;20256;-58
2023/07/02 10:27:03;;;;;;;5.10;2.63;;;20.20;92.70;;;;;;4962066;28;20392;-51
2023/07/02 10:29:29;;;;;;;8.82;3.47;;;20.10;92.60;;;;;;4962287;28;20077;-50
2023/07/02 10:31:56;;;;;;;12.52;3.05;;;20.00;92.70;;;;;;4963255;28;20334;-57
2023/07/02 10:34:32;;;;;;;7.85;2.95;;;20.10;92.20;;;;;;4973773;28;20104;-58
2023/07/02 10:37:00;;;;;;;7.95;2.80;;;20.20;92.30;;;;;;4966239;28;20258;-59
2023/07/02 10:39:26;;;;;;;7.18;2.38;;;20.10;92.40;;;;;;4965425;28;20410;-56
2023/07/02 10:41:52;;;;;;;8.27;2.97;;;20.10;91.60;;;;;;4965625;28;20190;-52
2023/07/02 10:44:18;;;;;;;9.52;3.20;;;19.90;91.90;;;;;;4965734;28;20501;-55
2023/07/02 10:46:47;;;;;;;10.90;3.00;;;19.70;92.00;;;;;;4964887;28;20094;-51
2023/07/02 10:49:17;;;;;;;7.47;2.90;;;19.80;92.80;;;;;;4965111;28;20039;-51
2023/07/02 10:51:43;;;;;;;10.95;3.33;;;19.90;92.20;;;;;;4965623;28;20532;-56
2023/07/02 10:54:09;;;;;;;8.65;3.08;;;20.10;92.40;;;;;;4965215;28;20077;-55
2023/07/02 10:56:35;;;;;;;13.43;3.88;;;20.30;92.30;;;;;;4965213;28;20050;-50
2023/07/02 10:59:01;;;;;;;9.15;2.85;;;20.40;91.50;;;;;;4965719;28;20050;-55
2023/07/02 11:01:31;;;;;;;6.22;2.53;;;20.40;91.10;;;;;;4963153;28;20061;-54
2023/07/02 11:04:01;;;;;;;7.63;2.50;;;20.30;91.20;;;;;;4964963;28;20117;-52
2023/07/02 11:06:28;;;;;;;10.02;2.92;;;20.20;90.60;;;;;;4965090;28;20050;-51
2023/07/02 11:08:57;;;;;;;9.85;2.88;;;19.90;91.10;;;;;;4965219;28;20143;-56
2023/07/02 11:11:23;;;;;;;9.50;2.80;;;19.80;91.00;;;;;;4963875;28;20039;-57
2023/07/02 11:13:51;;;;;;;7.95;2.60;;;19.90;90.80;;;;;;4964699;28;20054;-50
2023/07/02 11:16:25;;;;;;;9.32;3.05;;;20.00;91.10;;;;;;4964855;28;20533;-58
2023/07/02 11:19:07;;;;;;;9.43;2.70;;;20.00;91.10;;;;;;4964613;28;20043;-51
2023/07/02 11:21:33;;;;;;;7.55;2.63;;;19.90;91.40;;;;;;4970748;28;20085;-58
2023/07/02 11:24:08;;;;;;;8.45;2.78;;;19.80;91.80;;;;;;4969589;28;20398;-51
2023/07/02 11:26:41;;;;;;;8.70;2.60;;;19.90;92.10;;;;;;4971193;28;20307;-57
2023/07/02 11:29:17;;;;;;;3.60;1.70;;;20.20;90.90;;;;;;4976342;28;20057;-56
2023/07/02 11:31:43;;;;;;;10.65;2.67;;;20.50;90.00;;;;;;4983013;28;20038;-56
2023/07/02 11:34:16;;;;;;;8.23;2.88;;;20.50;90.10;;;;;;4984105;28;20100;-50
2023/07/02 11:36:41;;;;;;;8.25;2.50;;;20.50;90.20;;;;;;4983738;28;20370;-55
2023/07/02 11:39:07;;;;;;;7.97;3.03;;;20.30;90.80;;;;;;4984184;28;20060;-53
2023/07/02 11:41:40;;;;;;;7.28;2.67;;;20.40;91.30;;;;;;4983514;28;20038;-58
2023/07/02 11:44:06;;;;;;;7.80;2.72;;;20.60;90.70;;;;;;4982455;28;20065;-54
2023/07/02 11:46:32;;;;;;;7.32;3.05;;;20.50;90.10;;;;;;4982259;28;20054;-51
2023/07/02 11:49:00;;;;;;;9.63;2.72;;;20.30;90.50;;;;;;4984279;28;20133;-58
2023/07/02 11:51:25;;;;;;;7.55;2.60;;;20.30;90.70;;;;;;4983602;28;20057;-58
2023/07/02 11:53:51;;;;;;;12.07;2.58;;;20.20;90.90;;;;;;4977806;28;20043;-51
2023/07/02 11:56:17;;;;;;;8.20;2.80;;;20.30;90.60;;;;;;4970383;28;20038;-58
2023/07/02 11:58:42;;;;;;;8.27;2.88;;;20.40;90.30;;;;;;4964153;28;20361;-53
2023/07/02 12:01:08;;;;;;;10.40;2.90;;;20.40;90.00;;;;;;4963357;28;20413;-57
2023/07/02 12:03:34;;;;;;;8.25;2.80;;;20.20;90.50;;;;;;4963180;28;20034;-54
2023/07/02 12:06:00;;;;;;;8.95;3.20;;;20.00;90.80;;;;;;4963722;28;20101;-56
2023/07/02 12:08:25;;;;;;;7.35;2.60;;;19.80;90.50;;;;;;4963840;28;20441;-58
2023/07/02 12:10:51;;;;;;;12.38;3.00;;;19.70;91.00;;;;;;4970878;28;20057;-52
2023/07/02 12:13:17;;;;;;;9.15;2.75;;;19.60;91.20;;;;;;4967100;28;20046;-55
2023/07/02 12:15:43;;;;;;;7.82;2.47;;;19.80;91.20;;;;;;4963936;28;20047;-49
2023/07/02 12:18:09;;;;;;;7.43;2.47;;;19.60;91.10;;;;;;4963979;28;20047;-58
2023/07/02 12:20:35;;;;;;;8.23;2.53;;;19.70;91.70;;;;;;4962965;28;20472;-56
2023/07/02 12:23:00;;;;;;;10.82;2.63;;;19.80;91.10;;;;;;4964254;28;20081;-56
2023/07/02 12:25:27;;;;;;;8.18;2.70;;;19.90;91.30;;;;;;4963448;28;20053;-53
2023/07/02 12:27:53;;;;;;;6.55;2.38;;;20.00;91.40;;;;;;4963745;28;20046;-51
2023/07/02 12:30:19;;;;;;;6.43;2.70;;;20.20;90.80;;;;;;4963091;28;20039;-58
2023/07/02 12:32:45;;;;;;;9.85;2.42;;;20.30;90.40;;;;;;4963071;28;20659;-54
2023/07/02 12:35:11;;;;;;;5.85;2.03;;;20.40;90.70;;;;;;4964329;28;20043;-56
2023/07/02 12:37:47;;;;;;;5.97;1.90;;;20.50;90.10;;;;;;4962703;28;20039;-50